sensor_id;sensor_type;location;lat;lon;timestamp;pressure;altitude;pressure_sealevel;temperature;humidity
63009;BME280;49099;28.428;-16.488;2023-07-28T00:01:17;98826.47;;;24.35;56.52
63009;BME280;49099;28.428;-16.488;2023-07-28T00:03:45;98824.00;;;24.30;56.99
63009;BME280;49099;28.428;-16.488;2023-07-28T00:06:12;98815.34;;;24.25;58.00
63009;BME280;49099;28.428;-16.488;2023-07-28T00:08:39;98818.28;;;24.19;57.82
63009;BME280;49099;28.428;-16.488;2023-07-28T00:11:11;98819.88;;;24.21;58.12
63009;BME280;49099;28.428;-16.488;2023-07-28T00:13:41;98815.13;;;24.17;58.17
63009;BME280;49099;28.428;-16.488;2023-07-28T00:16:09;98811.09;;;24.11;58.16
63009;BME280;49099;28.428;-16.488;2023-07-28T00:18:37;98811.09;;;24.11;57.60
63009;BME280;49099;28.428;-16.488;2023-07-28T00:21:06;98792.59;;;24.13;57.60
63009;BME280;49099;28.428;-16.488;2023-07-28T00:23:34;98794.34;;;24.22;57.07
63009;BME280;49099;28.428;-16.488;2023-07-28T00:26:01;98796.78;;;24.27;56.88
63009;BME280;49099;28.428;-16.488;2023-07-28T00:28:29;98789.56;;;24.31;56.32
63009;BME280;49099;28.428;-16.488;2023-07-28T00:30:56;98783.81;;;24.32;56.21
63009;BME280;49099;28.428;-16.488;2023-07-28T00:33:23;98782.03;;;24.24;56.28
63009;BME280;49099;28.428;-16.488;2023-07-28T00:35:50;98770.19;;;24.16;56.27
63009;BME280;49099;28.428;-16.488;2023-07-28T00:38:17;98764.50;;;24.06;55.44
63009;BME280;49099;28.428;-16.488;2023-07-28T00:40:45;98771.09;;;23.93;54.70
63009;BME280;49099;28.428;-16.488;2023-07-28T00:43:12;98762.88;;;23.89;53.53
63009;BME280;49099;28.428;-16.488;2023-07-28T00:45:39;98747.56;;;23.81;52.95
63009;BME280;49099;28.428;-16.488;2023-07-28T00:48:11;98752.09;;;23.77;52.49
63009;BME280;49099;28.428;-16.488;2023-07-28T00:50:42;98760.44;;;23.84;52.42
63009;BME280;49099;28.428;-16.488;2023-07-28T00:53:11;98757.00;;;23.87;52.46
63009;BME280;49099;28.428;-16.488;2023-07-28T00:55:38;98757.91;;;23.91;51.89
63009;BME280;49099;28.428;-16.488;2023-07-28T00:58:06;98756.53;;;23.97;51.42
63009;BME280;49099;28.428;-16.488;2023-07-28T01:00:33;98764.75;;;24.01;50.62
63009;BME280;49099;28.428;-16.488;2023-07-28T01:03:00;98759.75;;;24.03;51.05
63009;BME280;49099;28.428;-16.488;2023-07-28T01:05:53;98762.81;;;24.01;51.88
63009;BME280;49099;28.428;-16.488;2023-07-28T01:11:29;98751.50;;;23.83;55.68
63009;BME280;49099;28.428;-16.488;2023-07-28T01:13:58;98750.31;;;23.69;56.05
63009;BME280;49099;28.428;-16.488;2023-07-28T01:16:25;98747.63;;;23.56;59.44
63009;BME280;49099;28.428;-16.488;2023-07-28T01:18:56;98753.31;;;23.39;62.32
63009;BME280;49099;28.428;-16.488;2023-07-28T01:21:28;98741.25;;;23.24;62.08
63009;BME280;49099;28.428;-16.488;2023-07-28T01:24:15;98742.16;;;23.28;60.91
63009;BME280;49099;28.428;-16.488;2023-07-28T01:26:43;98738.34;;;23.29;61.30
63009;BME280;49099;28.428;-16.488;2023-07-28T01:29:12;98726.72;;;23.29;63.02
63009;BME280;49099;28.428;-16.488;2023-07-28T01:31:42;98730.56;;;23.28;63.03
63009;BME280;49099;28.428;-16.488;2023-07-28T01:34:09;98725.25;;;23.31;63.31
63009;BME280;49099;28.428;-16.488;2023-07-28T01:36:36;98721.06;;;23.34;63.60
63009;BME280;49099;28.428;-16.488;2023-07-28T01:39:03;98719.75;;;23.28;63.95
63009;BME280;49099;28.428;-16.488;2023-07-28T01:41:30;98713.63;;;23.31;63.06
63009;BME280;49099;28.428;-16.488;2023-07-28T01:43:58;98715.91;;;23.29;63.66
63009;BME280;49099;28.428;-16.488;2023-07-28T01:46:25;98717.81;;;23.16;63.44
63009;BME280;49099;28.428;-16.488;2023-07-28T01:48:52;98717.03;;;23.16;62.89
63009;BME280;49099;28.428;-16.488;2023-07-28T01:51:19;98718.19;;;23.15;62.88
63009;BME280;49099;28.428;-16.488;2023-07-28T01:53:46;98716.69;;;23.17;62.88
63009;BME280;49099;28.428;-16.488;2023-07-28T01:56:13;98715.56;;;23.18;63.35
63009;BME280;49099;28.428;-16.488;2023-07-28T01:58:41;98705.53;;;23.19;62.65
63009;BME280;49099;28.428;-16.488;2023-07-28T02:01:08;98704.41;;;23.20;62.53
63009;BME280;49099;28.428;-16.488;2023-07-28T02:03:35;98697.53;;;23.22;62.07
63009;BME280;49099;28.428;-16.488;2023-07-28T02:06:03;98688.84;;;23.29;61.99
63009;BME280;49099;28.428;-16.488;2023-07-28T02:08:30;98685.19;;;23.37;61.39
63009;BME280;49099;28.428;-16.488;2023-07-28T02:10:57;98679.78;;;23.37;60.64
63009;BME280;49099;28.428;-16.488;2023-07-28T02:13:24;98673.25;;;23.38;60.44
63009;BME280;49099;28.428;-16.488;2023-07-28T02:15:51;98669.75;;;23.38;60.06
63009;BME280;49099;28.428;-16.488;2023-07-28T02:18:18;98666.00;;;23.42;59.69
63009;BME280;49099;28.428;-16.488;2023-07-28T02:20:48;98655.00;;;23.35;59.61
63009;BME280;49099;28.428;-16.488;2023-07-28T02:23:15;98654.00;;;23.27;59.08
63009;BME280;49099;28.428;-16.488;2023-07-28T02:25:43;98651.28;;;23.27;58.63
63009;BME280;49099;28.428;-16.488;2023-07-28T02:28:10;98653.22;;;23.27;58.82
63009;BME280;49099;28.428;-16.488;2023-07-28T02:30:38;98655.91;;;23.27;58.84
63009;BME280;49099;28.428;-16.488;2023-07-28T02:33:05;98657.03;;;23.26;58.43
63009;BME280;49099;28.428;-16.488;2023-07-28T02:35:33;98650.81;;;23.25;58.52
63009;BME280;49099;28.428;-16.488;2023-07-28T02:38:00;98655.44;;;23.25;58.11
63009;BME280;49099;28.428;-16.488;2023-07-28T02:40:27;98655.22;;;23.30;57.63
63009;BME280;49099;28.428;-16.488;2023-07-28T02:42:54;98647.31;;;23.37;57.67
63009;BME280;49099;28.428;-16.488;2023-07-28T02:45:21;98639.81;;;23.46;57.47
63009;BME280;49099;28.428;-16.488;2023-07-28T02:47:48;98636.28;;;23.58;57.01
63009;BME280;49099;28.428;-16.488;2023-07-28T02:50:16;98634.13;;;23.63;56.87
63009;BME280;49099;28.428;-16.488;2023-07-28T02:52:43;98637.25;;;23.66;57.03
63009;BME280;49099;28.428;-16.488;2023-07-28T02:55:10;98635.00;;;23.68;56.71
63009;BME280;49099;28.428;-16.488;2023-07-28T02:57:37;98636.59;;;23.69;56.73
63009;BME280;49099;28.428;-16.488;2023-07-28T03:00:05;98637.91;;;23.75;56.99
63009;BME280;49099;28.428;-16.488;2023-07-28T03:02:34;98629.19;;;23.81;56.59
63009;BME280;49099;28.428;-16.488;2023-07-28T03:05:02;98633.13;;;23.84;56.90
63009;BME280;49099;28.428;-16.488;2023-07-28T03:07:29;98633.13;;;23.84;57.17
63009;BME280;49099;28.428;-16.488;2023-07-28T03:09:57;98628.47;;;23.84;56.71
63009;BME280;49099;28.428;-16.488;2023-07-28T03:12:24;98623.84;;;23.85;57.13
63009;BME280;49099;28.428;-16.488;2023-07-28T03:14:52;98626.56;;;23.85;56.99
63009;BME280;49099;28.428;-16.488;2023-07-28T03:17:19;98629.09;;;23.78;57.72
63009;BME280;49099;28.428;-16.488;2023-07-28T03:19:46;98625.84;;;23.72;59.01
63009;BME280;49099;28.428;-16.488;2023-07-28T03:22:13;98621.66;;;23.75;58.53
63009;BME280;49099;28.428;-16.488;2023-07-28T03:24:40;98623.59;;;23.74;58.99
63009;BME280;49099;28.428;-16.488;2023-07-28T03:27:09;98619.38;;;23.77;59.04
63009;BME280;49099;28.428;-16.488;2023-07-28T03:29:36;98615.19;;;23.79;59.04
63009;BME280;49099;28.428;-16.488;2023-07-28T03:32:03;98613.38;;;23.83;58.75
63009;BME280;49099;28.428;-16.488;2023-07-28T03:34:31;98613.88;;;23.89;58.46
63009;BME280;49099;28.428;-16.488;2023-07-28T03:36:58;98612.31;;;23.88;58.11
63009;BME280;49099;28.428;-16.488;2023-07-28T03:39:25;98617.72;;;23.88;58.01
63009;BME280;49099;28.428;-16.488;2023-07-28T03:41:52;98613.88;;;23.89;57.75
63009;BME280;49099;28.428;-16.488;2023-07-28T03:44:20;98607.59;;;23.85;57.63
63009;BME280;49099;28.428;-16.488;2023-07-28T03:46:47;98607.59;;;23.85;57.80
63009;BME280;49099;28.428;-16.488;2023-07-28T03:49:14;98599.13;;;23.86;57.41
63009;BME280;49099;28.428;-16.488;2023-07-28T03:51:41;98590.47;;;23.81;57.24
63009;BME280;49099;28.428;-16.488;2023-07-28T03:54:08;98593.69;;;23.86;57.26
63009;BME280;49099;28.428;-16.488;2023-07-28T03:56:36;98602.09;;;23.81;56.92
63009;BME280;49099;28.428;-16.488;2023-07-28T03:59:03;98597.28;;;23.75;56.95
63009;BME280;49099;28.428;-16.488;2023-07-28T04:01:30;98599.22;;;23.74;56.84
63009;BME280;49099;28.428;-16.488;2023-07-28T04:03:58;98610.47;;;23.76;56.14
63009;BME280;49099;28.428;-16.488;2023-07-28T04:06:44;98609.88;;;23.83;56.36
63009;BME280;49099;28.428;-16.488;2023-07-28T04:09:13;98614.34;;;23.91;56.14
63009;BME280;49099;28.428;-16.488;2023-07-28T04:11:41;98600.44;;;23.93;55.48
63009;BME280;49099;28.428;-16.488;2023-07-28T04:14:09;98604.38;;;23.95;55.05
63009;BME280;49099;28.428;-16.488;2023-07-28T04:16:36;98600.78;;;23.91;55.14
63009;BME280;49099;28.428;-16.488;2023-07-28T04:19:04;98603.75;;;23.86;55.43
63009;BME280;49099;28.428;-16.488;2023-07-28T04:21:31;98614.41;;;23.79;57.46
63009;BME280;49099;28.428;-16.488;2023-07-28T04:23:58;98620.34;;;23.69;57.86
63009;BME280;49099;28.428;-16.488;2023-07-28T04:26:26;98604.56;;;23.58;58.37
63009;BME280;49099;28.428;-16.488;2023-07-28T04:28:53;98608.84;;;23.59;58.26
63009;BME280;49099;28.428;-16.488;2023-07-28T04:31:20;98605.03;;;23.60;58.30
63009;BME280;49099;28.428;-16.488;2023-07-28T04:33:47;98610.66;;;23.55;59.33
63009;BME280;49099;28.428;-16.488;2023-07-28T04:36:14;98605.41;;;23.47;60.37
63009;BME280;49099;28.428;-16.488;2023-07-28T04:38:41;98612.66;;;23.43;61.29
63009;BME280;49099;28.428;-16.488;2023-07-28T04:41:08;98615.03;;;23.44;60.59
63009;BME280;49099;28.428;-16.488;2023-07-28T04:43:35;98616.16;;;23.43;61.09
63009;BME280;49099;28.428;-16.488;2023-07-28T04:46:03;98614.31;;;23.47;60.72
63009;BME280;49099;28.428;-16.488;2023-07-28T04:48:30;98619.06;;;23.50;60.74
63009;BME280;49099;28.428;-16.488;2023-07-28T04:50:57;98617.47;;;23.49;61.06
63009;BME280;49099;28.428;-16.488;2023-07-28T04:53:24;98616.78;;;23.52;60.59
63009;BME280;49099;28.428;-16.488;2023-07-28T04:55:51;98610.66;;;23.55;60.51
63009;BME280;49099;28.428;-16.488;2023-07-28T04:58:18;98626.44;;;23.66;60.09
63009;BME280;49099;28.428;-16.488;2023-07-28T05:00:45;98626.91;;;23.68;60.21
63009;BME280;49099;28.428;-16.488;2023-07-28T05:03:13;98626.63;;;23.73;60.16
63009;BME280;49099;28.428;-16.488;2023-07-28T05:05:43;98628.66;;;23.76;60.07
63009;BME280;49099;28.428;-16.488;2023-07-28T05:08:11;98628.66;;;23.76;60.05
63009;BME280;49099;28.428;-16.488;2023-07-28T05:10:38;98636.00;;;23.75;60.43
63009;BME280;49099;28.428;-16.488;2023-07-28T05:13:05;98631.25;;;23.72;60.20
63009;BME280;49099;28.428;-16.488;2023-07-28T05:15:32;98638.94;;;23.70;60.39
63009;BME280;49099;28.428;-16.488;2023-07-28T05:18:00;98627.41;;;23.73;60.41
63009;BME280;49099;28.428;-16.488;2023-07-28T05:20:27;98627.16;;;23.78;60.06
63009;BME280;49099;28.428;-16.488;2023-07-28T05:22:54;98633.13;;;23.84;59.97
63009;BME280;49099;28.428;-16.488;2023-07-28T05:25:22;98640.09;;;23.85;59.77
63009;BME280;49099;28.428;-16.488;2023-07-28T05:27:49;98633.78;;;23.81;60.23
63009;BME280;49099;28.428;-16.488;2023-07-28T05:30:16;98635.38;;;23.82;59.91
63009;BME280;49099;28.428;-16.488;2023-07-28T05:32:43;98641.59;;;23.82;60.29
63009;BME280;49099;28.428;-16.488;2023-07-28T05:35:10;98639.22;;;23.81;60.72
63009;BME280;49099;28.428;-16.488;2023-07-28T05:37:37;98646.03;;;23.75;60.65
63009;BME280;49099;28.428;-16.488;2023-07-28T05:40:05;98650.56;;;23.71;60.07
63009;BME280;49099;28.428;-16.488;2023-07-28T05:42:32;98652.84;;;23.69;59.81
63009;BME280;49099;28.428;-16.488;2023-07-28T05:45:00;98643.56;;;23.70;60.07
63009;BME280;49099;28.428;-16.488;2023-07-28T05:47:27;98649.00;;;23.70;59.78
63009;BME280;49099;28.428;-16.488;2023-07-28T05:49:54;98651.00;;;23.73;59.43
63009;BME280;49099;28.428;-16.488;2023-07-28T05:52:21;98652.72;;;23.65;59.49
63009;BME280;49099;28.428;-16.488;2023-07-28T05:54:51;98652.63;;;23.61;59.46
63009;BME280;49099;28.428;-16.488;2023-07-28T05:57:19;98654.69;;;23.52;59.66
63009;BME280;49099;28.428;-16.488;2023-07-28T05:59:46;98658.06;;;23.49;59.42
63009;BME280;49099;28.428;-16.488;2023-07-28T06:02:13;98651.44;;;23.47;59.89
63009;BME280;49099;28.428;-16.488;2023-07-28T06:04:40;98663.41;;;23.46;59.94
63009;BME280;49099;28.428;-16.488;2023-07-28T06:07:08;98654.06;;;23.43;60.05
63009;BME280;49099;28.428;-16.488;2023-07-28T06:09:35;98659.91;;;23.45;60.00
63009;BME280;49099;28.428;-16.488;2023-07-28T06:12:02;98654.25;;;23.50;59.90
63009;BME280;49099;28.428;-16.488;2023-07-28T06:14:29;98668.91;;;23.49;59.75
63009;BME280;49099;28.428;-16.488;2023-07-28T06:16:56;98664.25;;;23.50;60.08
63009;BME280;49099;28.428;-16.488;2023-07-28T06:19:23;98659.41;;;23.55;59.47
63009;BME280;49099;28.428;-16.488;2023-07-28T06:21:51;98667.75;;;23.62;59.37
63009;BME280;49099;28.428;-16.488;2023-07-28T06:24:18;98678.78;;;23.70;59.01
63009;BME280;49099;28.428;-16.488;2023-07-28T06:26:46;98673.38;;;23.70;58.85
63009;BME280;49099;28.428;-16.488;2023-07-28T06:29:13;98678.53;;;23.75;58.80
63009;BME280;49099;28.428;-16.488;2023-07-28T06:31:40;98673.78;;;23.72;57.87
63009;BME280;49099;28.428;-16.488;2023-07-28T06:34:07;98670.56;;;23.66;57.93
63009;BME280;49099;28.428;-16.488;2023-07-28T06:36:34;98678.34;;;23.68;58.13
63009;BME280;49099;28.428;-16.488;2023-07-28T06:39:01;98669.94;;;23.73;58.33
63009;BME280;49099;28.428;-16.488;2023-07-28T06:41:29;98672.53;;;23.81;57.69
63009;BME280;49099;28.428;-16.488;2023-07-28T06:43:56;98670.59;;;23.82;57.87
63009;BME280;49099;28.428;-16.488;2023-07-28T06:46:23;98675.75;;;23.87;57.79
63009;BME280;49099;28.428;-16.488;2023-07-28T06:48:50;98678.72;;;23.82;58.59
63009;BME280;49099;28.428;-16.488;2023-07-28T06:51:18;98685.25;;;23.81;57.74
63009;BME280;49099;28.428;-16.488;2023-07-28T06:53:46;98688.84;;;23.85;57.88
63009;BME280;49099;28.428;-16.488;2023-07-28T06:56:13;98679.59;;;23.86;57.63
63009;BME280;49099;28.428;-16.488;2023-07-28T06:58:40;98685.91;;;23.90;57.65
63009;BME280;49099;28.428;-16.488;2023-07-28T07:01:07;98685.63;;;23.95;57.31
63009;BME280;49099;28.428;-16.488;2023-07-28T07:03:37;98689.66;;;24.01;56.90
63009;BME280;49099;28.428;-16.488;2023-07-28T07:06:04;98692.81;;;24.03;56.41
63009;BME280;49099;28.428;-16.488;2023-07-28T07:08:32;98695.78;;;23.98;55.67
63009;BME280;49099;28.428;-16.488;2023-07-28T07:10:59;98692.19;;;23.94;55.33
63009;BME280;49099;28.428;-16.488;2023-07-28T07:13:27;98694.22;;;23.97;55.90
63009;BME280;49099;28.428;-16.488;2023-07-28T07:15:54;98696.59;;;23.99;55.80
63009;BME280;49099;28.428;-16.488;2023-07-28T07:18:21;98690.81;;;24.00;55.69
63009;BME280;49099;28.428;-16.488;2023-07-28T07:20:49;98701.28;;;24.02;55.05
63009;BME280;49099;28.428;-16.488;2023-07-28T07:23:16;98702.50;;;24.04;55.34
63009;BME280;49099;28.428;-16.488;2023-07-28T07:25:43;98696.41;;;24.07;55.17
63009;BME280;49099;28.428;-16.488;2023-07-28T07:28:10;98706.56;;;24.10;54.96
63009;BME280;49099;28.428;-16.488;2023-07-28T07:30:38;98709.00;;;24.15;54.82
63009;BME280;49099;28.428;-16.488;2023-07-28T07:33:06;98713.72;;;24.18;53.94
63009;BME280;49099;28.428;-16.488;2023-07-28T07:35:37;98722.75;;;24.23;54.40
63009;BME280;49099;28.428;-16.488;2023-07-28T07:38:05;98722.47;;;24.28;54.68
63009;BME280;49099;28.428;-16.488;2023-07-28T07:40:36;98728.34;;;24.30;54.66
63009;BME280;49099;28.428;-16.488;2023-07-28T07:43:04;98727.22;;;24.31;54.44
63009;BME280;49099;28.428;-16.488;2023-07-28T07:45:31;98724.72;;;24.38;54.50
63009;BME280;49099;28.428;-16.488;2023-07-28T07:47:59;98722.88;;;24.42;54.36
63009;BME280;49099;28.428;-16.488;2023-07-28T07:50:26;98728.28;;;24.42;53.93
63009;BME280;49099;28.428;-16.488;2023-07-28T07:52:53;98729.19;;;24.46;54.03
63009;BME280;49099;28.428;-16.488;2023-07-28T07:55:21;98719.72;;;24.40;53.32
63009;BME280;49099;28.428;-16.488;2023-07-28T07:57:48;98714.31;;;24.40;53.81
63009;BME280;49099;28.428;-16.488;2023-07-28T08:00:15;98717.00;;;24.40;52.78
63009;BME280;49099;28.428;-16.488;2023-07-28T08:02:42;98713.44;;;24.36;52.65
63009;BME280;49099;28.428;-16.488;2023-07-28T08:05:12;98713.44;;;24.36;53.45
63009;BME280;49099;28.428;-16.488;2023-07-28T08:07:39;98727.94;;;24.43;53.13
63009;BME280;49099;28.428;-16.488;2023-07-28T08:10:07;98726.91;;;24.48;53.05
63009;BME280;49099;28.428;-16.488;2023-07-28T08:12:35;98730.75;;;24.47;51.13
63009;BME280;49099;28.428;-16.488;2023-07-28T08:15:02;98727.16;;;24.43;51.44
63009;BME280;49099;28.428;-16.488;2023-07-28T08:17:30;98735.22;;;24.39;51.31
63009;BME280;49099;28.428;-16.488;2023-07-28T08:19:57;98726.53;;;24.34;51.14
63009;BME280;49099;28.428;-16.488;2023-07-28T08:22:24;98725.28;;;24.31;50.16
63009;BME280;49099;28.428;-16.488;2023-07-28T08:24:52;98735.13;;;24.36;49.93
63009;BME280;49099;28.428;-16.488;2023-07-28T08:27:19;98728.91;;;24.35;49.76
63009;BME280;49099;28.428;-16.488;2023-07-28T08:29:46;98732.09;;;24.25;57.29
63009;BME280;49099;28.428;-16.488;2023-07-28T08:32:13;98736.63;;;24.05;57.95
63009;BME280;49099;28.428;-16.488;2023-07-28T08:34:40;98728.97;;;23.95;57.72
63009;BME280;49099;28.428;-16.488;2023-07-28T08:37:08;98733.25;;;23.96;57.98
63009;BME280;49099;28.428;-16.488;2023-07-28T08:39:35;98728.13;;;23.91;58.78
63009;BME280;49099;28.428;-16.488;2023-07-28T08:42:03;98725.28;;;23.87;58.01
63009;BME280;49099;28.428;-16.488;2023-07-28T08:44:32;98729.06;;;23.83;59.51
63009;BME280;49099;28.428;-16.488;2023-07-28T08:47:01;98735.72;;;23.73;60.09
63009;BME280;49099;28.428;-16.488;2023-07-28T08:49:28;98736.78;;;23.69;60.04
63009;BME280;49099;28.428;-16.488;2023-07-28T08:51:59;98738.59;;;23.65;59.65
63009;BME280;49099;28.428;-16.488;2023-07-28T08:54:27;98744.00;;;23.65;59.27
63009;BME280;49099;28.428;-16.488;2023-07-28T08:56:54;98746.28;;;23.62;59.52
63009;BME280;49099;28.428;-16.488;2023-07-28T08:59:26;98749.66;;;23.59;57.76
63009;BME280;49099;28.428;-16.488;2023-07-28T09:01:54;98744.69;;;23.61;58.27
63009;BME280;49099;28.428;-16.488;2023-07-28T09:04:23;98742.75;;;23.74;57.72
63009;BME280;49099;28.428;-16.488;2023-07-28T09:06:50;98744.16;;;23.84;56.97
63009;BME280;49099;28.428;-16.488;2023-07-28T09:09:22;98749.53;;;23.96;56.62
63009;BME280;49099;28.428;-16.488;2023-07-28T09:11:52;98752.09;;;24.05;56.28
63009;BME280;49099;28.428;-16.488;2023-07-28T09:14:21;98753.75;;;24.09;55.69
63009;BME280;49099;28.428;-16.488;2023-07-28T09:16:52;98747.97;;;24.11;54.63
63009;BME280;49099;28.428;-16.488;2023-07-28T09:19:21;98753.00;;;24.25;54.52
63009;BME280;49099;28.428;-16.488;2023-07-28T09:21:59;98752.97;;;24.37;54.03
63009;BME280;49099;28.428;-16.488;2023-07-28T09:24:33;98757.75;;;24.43;53.19
63009;BME280;49099;28.428;-16.488;2023-07-28T09:27:01;98751.31;;;24.48;53.48
63009;BME280;49099;28.428;-16.488;2023-07-28T09:29:29;98754.00;;;24.48;53.49
63009;BME280;49099;28.428;-16.488;2023-07-28T09:32:04;98748.84;;;24.59;53.08
63009;BME280;49099;28.428;-16.488;2023-07-28T09:34:31;98748.84;;;24.74;51.54
63009;BME280;49099;28.428;-16.488;2023-07-28T09:37:00;98747.59;;;24.88;52.38
63009;BME280;49099;28.428;-16.488;2023-07-28T09:39:28;98749.34;;;25.12;49.38
63009;BME280;49099;28.428;-16.488;2023-07-28T09:41:56;98743.28;;;25.18;48.01
63009;BME280;49099;28.428;-16.488;2023-07-28T09:44:26;98747.81;;;25.30;47.79
63009;BME280;49099;28.428;-16.488;2023-07-28T09:46:56;98742.97;;;25.39;47.12
63009;BME280;49099;28.428;-16.488;2023-07-28T09:49:36;98744.75;;;25.51;47.72
63009;BME280;49099;28.428;-16.488;2023-07-28T09:52:09;98746.13;;;25.41;47.47
63009;BME280;49099;28.428;-16.488;2023-07-28T09:54:41;98746.38;;;25.36;46.86
63009;BME280;49099;28.428;-16.488;2023-07-28T09:57:14;98756.66;;;25.27;47.13
63009;BME280;49099;28.428;-16.488;2023-07-28T09:59:45;98751.16;;;25.23;47.66
63009;BME280;49099;28.428;-16.488;2023-07-28T10:02:13;98752.50;;;25.14;50.26
63009;BME280;49099;28.428;-16.488;2023-07-28T10:04:41;98746.56;;;25.08;51.76
63009;BME280;49099;28.428;-16.488;2023-07-28T10:07:09;98759.84;;;24.97;52.78
63009;BME280;49099;28.428;-16.488;2023-07-28T10:09:37;98756.28;;;24.93;52.63
63009;BME280;49099;28.428;-16.488;2023-07-28T10:12:05;98755.75;;;24.88;52.56
63009;BME280;49099;28.428;-16.488;2023-07-28T10:14:37;98755.06;;;24.91;53.04
63009;BME280;49099;28.428;-16.488;2023-07-28T10:17:05;98751.44;;;25.02;53.11
63009;BME280;49099;28.428;-16.488;2023-07-28T10:19:36;98754.72;;;25.08;53.21
63009;BME280;49099;28.428;-16.488;2023-07-28T10:22:08;98758.06;;;25.21;52.94
63009;BME280;49099;28.428;-16.488;2023-07-28T10:24:55;98753.88;;;25.23;52.68
63009;BME280;49099;28.428;-16.488;2023-07-28T10:27:51;98758.06;;;25.21;51.15
63009;BME280;49099;28.428;-16.488;2023-07-28T10:30:19;98757.13;;;25.13;51.59
63009;BME280;49099;28.428;-16.488;2023-07-28T10:32:49;98754.25;;;25.22;52.05
63009;BME280;49099;28.428;-16.488;2023-07-28T10:35:26;98754.16;;;25.18;50.92
63009;BME280;49099;28.428;-16.488;2023-07-28T10:37:54;98750.84;;;25.09;50.69
63009;BME280;49099;28.428;-16.488;2023-07-28T10:40:31;98753.38;;;25.18;51.13
63009;BME280;49099;28.428;-16.488;2023-07-28T10:43:02;98759.31;;;25.23;50.10
63009;BME280;49099;28.428;-16.488;2023-07-28T10:45:31;98755.56;;;25.12;50.45
63009;BME280;49099;28.428;-16.488;2023-07-28T10:47:59;98756.44;;;25.16;50.45
63009;BME280;49099;28.428;-16.488;2023-07-28T10:50:31;98753.56;;;25.09;50.49
63009;BME280;49099;28.428;-16.488;2023-07-28T10:52:58;98759.72;;;25.06;50.39
63009;BME280;49099;28.428;-16.488;2023-07-28T10:55:27;98763.78;;;25.00;50.48
63009;BME280;49099;28.428;-16.488;2023-07-28T10:57:55;98768.88;;;24.86;50.62
63009;BME280;49099;28.428;-16.488;2023-07-28T11:00:25;98761.16;;;24.88;50.82
63009;BME280;49099;28.428;-16.488;2023-07-28T11:02:53;98765.75;;;24.84;50.61
63009;BME280;49099;28.428;-16.488;2023-07-28T11:05:23;98765.75;;;24.84;51.55
63009;BME280;49099;28.428;-16.488;2023-07-28T11:07:53;98756.53;;;24.88;51.85
63009;BME280;49099;28.428;-16.488;2023-07-28T11:10:21;98756.44;;;25.00;50.59
63009;BME280;49099;28.428;-16.488;2023-07-28T11:12:50;98762.22;;;24.99;51.97
63009;BME280;49099;28.428;-16.488;2023-07-28T11:15:19;98764.31;;;24.90;52.92
63009;BME280;49099;28.428;-16.488;2023-07-28T11:17:48;98768.16;;;24.89;53.63
63009;BME280;49099;28.428;-16.488;2023-07-28T11:20:21;98762.22;;;24.99;53.49
63009;BME280;49099;28.428;-16.488;2023-07-28T11:22:56;98758.38;;;25.00;53.31
63009;BME280;49099;28.428;-16.488;2023-07-28T11:25:25;98754.78;;;25.12;53.26
63009;BME280;49099;28.428;-16.488;2023-07-28T11:27:53;98758.88;;;25.21;52.32
63009;BME280;49099;28.428;-16.488;2023-07-28T11:30:22;98767.66;;;25.15;51.96
63009;BME280;49099;28.428;-16.488;2023-07-28T11:32:51;98759.41;;;25.11;52.39
63009;BME280;49099;28.428;-16.488;2023-07-28T11:35:20;98763.38;;;25.14;52.06
63009;BME280;49099;28.428;-16.488;2023-07-28T11:37:51;98760.28;;;25.15;51.04
63009;BME280;49099;28.428;-16.488;2023-07-28T11:40:20;98763.50;;;25.21;50.37
63009;BME280;49099;28.428;-16.488;2023-07-28T11:42:50;98759.56;;;25.18;50.36
63009;BME280;49099;28.428;-16.488;2023-07-28T11:45:20;98754.66;;;25.24;48.81
63009;BME280;49099;28.428;-16.488;2023-07-28T11:48:00;98757.28;;;25.20;50.45
63009;BME280;49099;28.428;-16.488;2023-07-28T11:50:35;98759.00;;;25.28;50.44
63009;BME280;49099;28.428;-16.488;2023-07-28T11:53:03;98759.47;;;25.31;50.16
63009;BME280;49099;28.428;-16.488;2023-07-28T11:55:31;98750.28;;;25.19;50.10
63009;BME280;49099;28.428;-16.488;2023-07-28T11:58:00;98756.81;;;25.15;50.86
63009;BME280;49099;28.428;-16.488;2023-07-28T12:00:33;98755.50;;;25.09;50.55
63009;BME280;49099;28.428;-16.488;2023-07-28T12:03:08;98754.88;;;25.15;50.31
63009;BME280;49099;28.428;-16.488;2023-07-28T12:05:41;98753.00;;;25.19;50.63
63009;BME280;49099;28.428;-16.488;2023-07-28T12:08:12;98756.47;;;25.36;49.97
63009;BME280;49099;28.428;-16.488;2023-07-28T12:10:54;98753.06;;;25.39;48.91
63009;BME280;49099;28.428;-16.488;2023-07-28T12:13:24;98755.75;;;25.39;49.58
63009;BME280;49099;28.428;-16.488;2023-07-28T12:15:56;98755.25;;;25.52;49.93
63009;BME280;49099;28.428;-16.488;2023-07-28T12:18:29;98751.91;;;25.59;49.53
63009;BME280;49099;28.428;-16.488;2023-07-28T12:21:00;98748.81;;;25.76;48.91
63009;BME280;49099;28.428;-16.488;2023-07-28T12:23:27;98744.00;;;25.89;49.35
63009;BME280;49099;28.428;-16.488;2023-07-28T12:25:57;98741.84;;;25.98;48.55
63009;BME280;49099;28.428;-16.488;2023-07-28T12:28:25;98741.19;;;26.05;47.25
63009;BME280;49099;28.428;-16.488;2023-07-28T12:30:53;98743.16;;;26.27;45.57
63009;BME280;49099;28.428;-16.488;2023-07-28T12:33:23;98739.50;;;26.39;43.42
63009;BME280;49099;28.428;-16.488;2023-07-28T12:36:04;98735.19;;;26.61;45.53
63009;BME280;49099;28.428;-16.488;2023-07-28T12:38:35;98732.34;;;26.77;42.58
63009;BME280;49099;28.428;-16.488;2023-07-28T12:41:05;98733.22;;;26.84;41.35
63009;BME280;49099;28.428;-16.488;2023-07-28T12:43:36;98730.94;;;26.86;41.31
63009;BME280;49099;28.428;-16.488;2023-07-28T12:46:06;98728.38;;;26.71;41.24
63009;BME280;49099;28.428;-16.488;2023-07-28T12:48:36;98732.28;;;26.73;40.99
63009;BME280;49099;28.428;-16.488;2023-07-28T12:51:14;98731.44;;;26.69;41.37